| time (UTC) | temp C | wind direction | speed KPH | gust KPH | rain 1hr cm | rain 24hr cm | rain mn cm | humidity % | barometer mb |
| 20260507183342 | 17 | 108 | 6.4 | 11.3 | 0.00 | 0.00 | 0.00 | 41 | 1010.6 |
| 20260507182839 | 17 | 105 | 3.2 | 9.7 | 0.00 | 0.00 | 0.00 | 47 | 1010.6 |
| 20260507182335 | 18 | 209 | 6.4 | 11.3 | 0.00 | 0.00 | 0.00 | 41 | 1010.8 |
| 20260507181831 | 18 | 1 | 9.7 | 11.3 | 0.00 | 0.00 | 0.00 | 45 | 1010.7 |
| 20260507181327 | 18 | 28 | 3.2 | 6.4 | 0.00 | 0.00 | 0.00 | 41 | 1010.8 |
| 20260507180825 | 17 | 351 | 6.4 | 6.4 | 0.00 | 0.00 | 0.00 | 49 | 1010.7 |
| 20260507180321 | 18 | 318 | 6.4 | 14.5 | 0.00 | 0.00 | 0.00 | 44 | 1010.9 |
| 20260507175817 | 18 | 314 | 6.4 | 6.4 | 0.00 | 0.00 | 0.00 | 44 | 1011.1 |
| 20260507175314 | 17 | 264 | 6.4 | 9.7 | 0.00 | 0.00 | 0.00 | 43 | 1011.0 |
| 20260507174811 | 17 | 264 | 8.0 | 11.3 | 0.00 | 0.00 | 0.00 | 43 | 1011.4 |
| 20260507174309 | 18 | 336 | 8.0 | 12.9 | 0.00 | 0.00 | 0.00 | 41 | 1011.6 |
| 20260507173806 | 18 | 60 | 3.2 | 4.8 | 0.00 | 0.00 | 0.00 | 41 | 1011.5 |
| 20260507173303 | 16 | 5 | 0.0 | 4.8 | 0.00 | 0.00 | 0.00 | 46 | 1011.5 |
| 20260507172759 | 17 | 330 | 6.4 | 11.3 | 0.00 | 0.00 | 0.00 | 41 | 1011.8 |
| 20260507172256 | 17 | 320 | 0.0 | 4.8 | 0.00 | 0.00 | 0.00 | 51 | 1011.9 |
| 20260507171752 | 17 | 236 | 3.2 | 6.4 | 0.00 | 0.00 | 0.00 | 40 | 1011.9 |
| 20260507171249 | 16 | 262 | 1.6 | 4.8 | 0.00 | 0.00 | 0.00 | 43 | 1012.1 |
| 20260507170746 | 17 | 217 | 4.8 | 9.7 | 0.00 | 0.00 | 0.00 | 42 | 1012.2 |
| 20260507170243 | 16 | 323 | 3.2 | 9.7 | 0.00 | 0.00 | 0.00 | 46 | 1012.1 |
| 20260507165738 | 17 | 0 | 6.4 | 6.4 | 0.00 | 0.00 | 0.00 | 43 | 1012.2 |
| 20260507165235 | 16 | 278 | 6.4 | 6.4 | 0.00 | 0.00 | 0.00 | 46 | 1012.4 |
| 20260507164731 | 16 | 273 | 9.7 | 14.5 | 0.00 | 0.00 | 0.00 | 45 | 1012.3 |
| 20260507164228 | 16 | 245 | 9.7 | 11.3 | 0.00 | 0.00 | 0.00 | 43 | 1012.4 |
| 20260507163725 | 16 | 226 | 6.4 | 11.3 | 0.00 | 0.00 | 0.00 | 44 | 1012.5 |
| 20260507163223 | 16 | 317 | 4.8 | 6.4 | 0.00 | 0.00 | 0.00 | 46 | 1012.6 |
| 20260507162719 | 16 | 269 | 4.8 | 4.8 | 0.00 | 0.00 | 0.00 | 45 | 1012.6 |
| 20260507162215 | 16 | 348 | 0.0 | 1.6 | 0.00 | 0.00 | 0.00 | 43 | 1012.6 |
| 20260507161712 | 16 | 331 | 4.8 | 14.5 | 0.00 | 0.00 | 0.00 | 40 | 1012.7 |
| 20260507161208 | 16 | 339 | 8.0 | 9.7 | 0.00 | 0.00 | 0.00 | 50 | 1012.7 |
| 20260507160704 | 15 | 80 | 3.2 | 6.4 | 0.00 | 0.00 | 0.00 | 41 | 1013.0 |
| 20260507160201 | 16 | 355 | 4.8 | 9.7 | 0.00 | 0.00 | 0.00 | 47 | 1013.1 |
| 20260507155656 | 15 | 315 | 4.8 | 6.4 | 0.00 | 0.00 | 0.00 | 46 | 1013.4 |
| 20260507155153 | 15 | 316 | 4.8 | 9.7 | 0.00 | 0.00 | 0.00 | 45 | 1013.2 |
| 20260507154650 | 16 | 329 | 6.4 | 11.3 | 0.00 | 0.00 | 0.00 | 47 | 1013.3 |
| 20260507154148 | 15 | 325 | 4.8 | 6.4 | 0.00 | 0.00 | 0.00 | 49 | 1013.5 |
| 20260507153644 | 13 | 101 | 1.6 | 3.2 | 0.00 | 0.00 | 0.00 | 46 | 1013.3 |
| 20260507153140 | 14 | 341 | 1.6 | 6.4 | 0.00 | 0.00 | 0.00 | 52 | 1013.3 |
| 20260507152637 | 15 | 294 | 11.3 | 12.9 | 0.00 | 0.00 | 0.00 | 47 | 1013.2 |
| 20260507152132 | 15 | 319 | 3.2 | 12.9 | 0.00 | 0.00 | 0.00 | 51 | 1013.3 |
| 20260507151629 | 14 | 240 | 4.8 | 6.4 | 0.00 | 0.00 | 0.00 | 47 | 1013.3 |
| 20260507151126 | 13 | 282 | 9.7 | 16.1 | 0.00 | 0.00 | 0.00 | 51 | 1013.5 |
| 20260507150623 | 15 | 293 | 8.0 | 12.9 | 0.00 | 0.00 | 0.00 | 51 | 1013.5 |
| 20260507150120 | 15 | 335 | 9.7 | 11.3 | 0.00 | 0.00 | 0.00 | 49 | 1013.8 |
| 20260507145615 | 15 | 319 | 8.0 | 11.3 | 0.00 | 0.00 | 0.00 | 51 | 1013.6 |
| 20260507145113 | 14 | 282 | 14.5 | 16.1 | 0.00 | 0.00 | 0.00 | 48 | 1014.0 |
| 20260507144613 | 14 | 282 | 8.0 | 14.5 | 0.00 | 0.00 | 0.00 | 53 | 1014.0 |
| 20260507144112 | 15 | 263 | 12.9 | 14.5 | 0.00 | 0.00 | 0.00 | 47 | 1014.3 |
| 20260507143608 | 14 | 258 | 8.0 | 14.5 | 0.00 | 0.00 | 0.00 | 53 | 1014.1 |
| 20260507143106 | 13 | 355 | 6.4 | 9.7 | 0.00 | 0.00 | 0.00 | 50 | 1014.2 |
| 20260507142601 | 13 | 355 | 6.4 | 9.7 | 0.00 | 0.00 | 0.00 | 50 | 1014.4 |
| 20260507142058 | 13 | 337 | 11.3 | 12.9 | 0.00 | 0.00 | 0.00 | 52 | 1014.4 |
| 20260507141554 | 14 | 286 | 12.9 | 16.1 | 0.00 | 0.00 | 0.00 | 47 | 1014.1 |
| 20260507141051 | 13 | 301 | 9.7 | 12.9 | 0.00 | 0.00 | 0.00 | 56 | 1014.6 |
| 20260507140547 | -17 | 0.0 | 0.0 | 0.00 | 0.00 | 0.00 | 1014.7 | ||
| 20260507140045 | -17 | 0.0 | 0.0 | 0.00 | 0.00 | 0.00 | 1014.8 | ||
| 20260507135542 | -17 | 0.0 | 0.0 | 0.00 | 0.00 | 0.00 | 1014.7 | ||
| 20260507135039 | -17 | 0.0 | 0.0 | 0.00 | 0.00 | 0.00 | 1014.8 | ||
| 20260507134535 | -17 | 0.0 | 0.0 | 0.00 | 0.00 | 0.00 | 1014.9 | ||
| 20260507134031 | -17 | 0.0 | 0.0 | 0.00 | 0.00 | 0.00 | 1015.0 | ||
| 20260507133528 | -17 | 0.0 | 0.0 | 0.00 | 0.00 | 0.00 | 1014.9 | ||
| 20260507133026 | 12 | 278 | 9.7 | 12.9 | 0.00 | 0.00 | 0.00 | 54 | 1014.8 |
| 20260507132522 | 12 | 278 | 9.7 | 12.9 | 0.00 | 0.00 | 0.00 | 54 | 1014.9 |
| 20260507132018 | -17 | 0.0 | 0.0 | 0.00 | 0.00 | 0.00 | 1014.9 | ||
| 20260507131516 | -17 | 0.0 | 0.0 | 0.00 | 0.00 | 0.00 | 1014.9 | ||
| 20260507131013 | -17 | 0.0 | 0.0 | 0.00 | 0.00 | 0.00 | 1015.0 | ||
| 20260507130509 | -17 | 0.0 | 0.0 | 0.00 | 0.00 | 0.00 | 1015.1 | ||
| 20260507130008 | -17 | 0.0 | 0.0 | 0.00 | 0.00 | 0.00 | 1014.9 | ||
| 20260507125506 | -17 | 0.0 | 0.0 | 0.00 | 0.00 | 0.00 | 1014.9 | ||
| 20260507125003 | -17 | 0.0 | 0.0 | 0.00 | 0.00 | 0.00 | 1015.1 | ||
| 20260507124459 | -17 | 0.0 | 0.0 | 0.00 | 0.00 | 0.00 | 1015.0 | ||
| 20260507123957 | 11 | 285 | 6.4 | 9.7 | 0.00 | 0.00 | 0.00 | 63 | 1015.0 |
| 20260507123455 | 11 | 285 | 6.4 | 9.7 | 0.00 | 0.00 | 0.00 | 63 | 1015.1 |
| 20260507122951 | -17 | 0.0 | 0.0 | 0.00 | 0.00 | 0.00 | 1015.0 | ||
| 20260507122446 | -17 | 0.0 | 0.0 | 0.00 | 0.00 | 0.00 | 1014.9 | ||
| 20260507121943 | -17 | 0.0 | 0.0 | 0.00 | 0.00 | 0.00 | 1015.0 | ||
| 20260507121438 | -17 | 0.0 | 0.0 | 0.00 | 0.00 | 0.00 | 1015.1 | ||
| 20260507120935 | -17 | 0.0 | 0.0 | 0.00 | 0.00 | 0.00 | 1014.9 | ||
| 20260507120431 | -17 | 0.0 | 0.0 | 0.00 | 0.00 | 0.00 | 1014.8 | ||
| 20260507115928 | -17 | 0.0 | 0.0 | 0.00 | 0.00 | 0.00 | 1014.7 | ||
| 20260507115424 | -17 | 0.0 | 0.0 | 0.00 | 0.00 | 0.00 | 1014.9 | ||
| 20260507114920 | -17 | 0.0 | 0.0 | 0.00 | 0.00 | 0.00 | 1014.9 | ||
| 20260507114417 | -17 | 0.0 | 0.0 | 0.00 | 0.00 | 0.00 | 1014.7 | ||
| 20260507113914 | -17 | 0.0 | 0.0 | 0.00 | 0.00 | 0.00 | 1014.6 | ||
| 20260507113411 | -17 | 0.0 | 0.0 | 0.00 | 0.00 | 0.00 | 1014.7 | ||
| 20260507112908 | -17 | 0.0 | 0.0 | 0.00 | 0.00 | 0.00 | 1014.5 | ||
| 20260507112406 | -17 | 0.0 | 0.0 | 0.00 | 0.00 | 0.00 | 1014.5 | ||
| 20260507111904 | -17 | 0.0 | 0.0 | 0.00 | 0.00 | 0.00 | 1014.6 | ||
| 20260507111359 | -17 | 0.0 | 0.0 | 0.00 | 0.00 | 0.00 | 1014.7 | ||
| 20260507110855 | -17 | 0.0 | 0.0 | 0.00 | 0.00 | 0.00 | 1014.6 | ||
| 20260507110352 | -17 | 0.0 | 0.0 | 0.00 | 0.00 | 0.00 | 1014.6 | ||
| 20260507105849 | -17 | 0.0 | 0.0 | 0.00 | 0.00 | 0.00 | 1014.6 | ||
| 20260507105345 | -17 | 0.0 | 0.0 | 0.00 | 0.00 | 0.00 | 1014.4 | ||
| 20260507104842 | -17 | 0.0 | 0.0 | 0.00 | 0.00 | 0.00 | 1014.4 | ||
| 20260507104339 | -17 | 0.0 | 0.0 | 0.00 | 0.00 | 0.00 | 1014.4 | ||
| 20260507103835 | -17 | 0.0 | 0.0 | 0.00 | 0.00 | 0.00 | 1014.0 | ||
| 20260507103332 | -17 | 0.0 | 0.0 | 0.00 | 0.00 | 0.00 | 1013.9 | ||
| 20260507102828 | -17 | 0.0 | 0.0 | 0.00 | 0.00 | 0.00 | 1014.0 | ||
| 20260507102325 | -17 | 0.0 | 0.0 | 0.00 | 0.00 | 0.00 | 1013.9 | ||
| 20260507101822 | -17 | 0.0 | 0.0 | 0.00 | 0.00 | 0.00 | 1014.0 | ||
| 20260507101321 | -17 | 0.0 | 0.0 | 0.00 | 0.00 | 0.00 | 1014.0 | ||
| 20260507100819 | -17 | 0.0 | 0.0 | 0.00 | 0.00 | 0.00 | 1013.9 | ||
| 20260507100317 | 11 | 336 | 4.8 | 4.8 | 0.00 | 0.00 | 0.00 | 69 | 1013.9 |
| 20260507095815 | 11 | 336 | 4.8 | 4.8 | 0.00 | 0.00 | 0.00 | 69 | 1013.7 |
| 20260507095311 | -17 | 0.0 | 0.0 | 0.00 | 0.00 | 0.00 | 1013.7 | ||
| 20260507094808 | -17 | 0.0 | 0.0 | 0.00 | 0.00 | 0.00 | 1013.6 | ||
| 20260507094305 | 11 | 332 | 3.2 | 3.2 | 0.00 | 0.00 | 0.00 | 73 | 1013.4 |
| 20260507093802 | 11 | 332 | 3.2 | 3.2 | 0.00 | 0.00 | 0.00 | 73 | 1013.5 |
| 20260507093300 | -17 | 0.0 | 0.0 | 0.00 | 0.00 | 0.00 | 1013.4 | ||
| 20260507092758 | 11 | 343 | 1.6 | 3.2 | 0.00 | 0.00 | 0.00 | 72 | 1013.5 |
| 20260507092254 | 11 | 343 | 1.6 | 3.2 | 0.00 | 0.00 | 0.00 | 72 | 1013.4 |
| 20260507091750 | 11 | 331 | 3.2 | 4.8 | 0.00 | 0.00 | 0.00 | 72 | 1013.6 |
| 20260507091247 | 11 | 345 | 4.8 | 4.8 | 0.00 | 0.00 | 0.00 | 73 | 1013.6 |
| 20260507090742 | 11 | 327 | 3.2 | 4.8 | 0.00 | 0.00 | 0.00 | 74 | 1013.8 |
| 20260507090239 | 11 | 332 | 6.4 | 6.4 | 0.00 | 0.00 | 0.00 | 74 | 1013.6 |
| 20260507085736 | 11 | 332 | 4.8 | 4.8 | 0.00 | 0.00 | 0.00 | 76 | 1013.6 |
| 20260507085233 | 11 | 325 | 3.2 | 3.2 | 0.00 | 0.00 | 0.00 | 76 | 1013.9 |
| 20260507084730 | 11 | 347 | 3.2 | 3.2 | 0.00 | 0.00 | 0.00 | 78 | 1013.5 |
| 20260507084226 | 11 | 347 | 3.2 | 3.2 | 0.00 | 0.00 | 0.00 | 78 | 1013.6 |
| 20260507083724 | 11 | 322 | 3.2 | 3.2 | 0.00 | 0.00 | 0.00 | 79 | 1013.6 |
| 20260507083220 | 11 | 339 | 3.2 | 4.8 | 0.00 | 0.00 | 0.00 | 79 | 1013.6 |
| 20260507082716 | 11 | 314 | 1.6 | 1.6 | 0.00 | 0.00 | 0.00 | 80 | 1013.4 |
| 20260507082212 | 11 | 340 | 0.0 | 0.0 | 0.00 | 0.00 | 0.00 | 81 | 1013.6 |
| 20260507081709 | 11 | 340 | 0.0 | 0.0 | 0.00 | 0.00 | 0.00 | 81 | 1013.5 |
| 20260507081205 | 11 | 326 | 0.0 | 1.6 | 0.00 | 0.00 | 0.00 | 82 | 1013.4 |
| 20260507080702 | 11 | 338 | 0.0 | 0.0 | 0.00 | 0.00 | 0.00 | 82 | 1013.4 |
| 20260507080158 | 11 | 338 | 0.0 | 0.0 | 0.00 | 0.00 | 0.00 | 82 | 1013.1 |
| 20260507075654 | 11 | 328 | 3.2 | 3.2 | 0.00 | 0.00 | 0.00 | 80 | 1013.0 |
| 20260507075150 | 11 | 333 | 1.6 | 1.6 | 0.00 | 0.00 | 0.00 | 82 | 1013.2 |
| 20260507074647 | 11 | 331 | 3.2 | 3.2 | 0.00 | 0.00 | 0.00 | 81 | 1012.9 |
| 20260507074145 | 11 | 328 | 1.6 | 1.6 | 0.00 | 0.00 | 0.00 | 80 | 1012.9 |
| 20260507073641 | 11 | 323 | 0.0 | 1.6 | 0.00 | 0.00 | 0.00 | 82 | 1013.0 |
| 20260507073137 | 11 | 317 | 1.6 | 1.6 | 0.00 | 0.00 | 0.00 | 81 | 1013.0 |
| 20260507072636 | 11 | 326 | 1.6 | 3.2 | 0.00 | 0.00 | 0.00 | 82 | 1012.8 |
| 20260507072133 | 11 | 331 | 3.2 | 4.8 | 0.00 | 0.00 | 0.00 | 82 | 1012.9 |
| 20260507071630 | 11 | 335 | 1.6 | 3.2 | 0.00 | 0.00 | 0.00 | 81 | 1012.8 |
| 20260507071126 | 11 | 346 | 1.6 | 1.6 | 0.00 | 0.00 | 0.00 | 83 | 1012.8 |
| 20260507070623 | 11 | 330 | 1.6 | 3.2 | 0.00 | 0.00 | 0.00 | 83 | 1012.7 |
| 20260507070120 | 11 | 326 | 1.6 | 1.6 | 0.00 | 0.00 | 0.00 | 84 | 1012.8 |
| 20260507065616 | 11 | 331 | 1.6 | 3.2 | 0.00 | 0.00 | 0.00 | 84 | 1013.1 |
| 20260507065114 | 11 | 336 | 1.6 | 1.6 | 0.00 | 0.00 | 0.00 | 85 | 1012.9 |
| 20260507064611 | 12 | 330 | 1.6 | 3.2 | 0.00 | 0.00 | 0.00 | 84 | 1013.0 |
| 20260507064110 | 12 | 346 | 1.6 | 1.6 | 0.00 | 0.00 | 0.00 | 83 | 1013.0 |
| 20260507063607 | 12 | 19 | 0.0 | 0.0 | 0.00 | 0.00 | 0.00 | 84 | 1013.3 |
| 20260507063104 | 11 | 325 | 0.0 | 0.0 | 0.00 | 0.00 | 0.00 | 85 | 1013.4 |
| 20260507062600 | 11 | 298 | 0.0 | 0.0 | 0.00 | 0.00 | 0.00 | 85 | 1013.4 |
| 20260507062058 | 12 | 306 | 1.6 | 1.6 | 0.00 | 0.00 | 0.00 | 84 | 1013.3 |
| 20260507061556 | 12 | 273 | 1.6 | 3.2 | 0.00 | 0.00 | 0.00 | 82 | 1013.4 |
| 20260507061054 | 12 | 287 | 3.2 | 3.2 | 0.00 | 0.00 | 0.00 | 81 | 1013.6 |
| 20260507060551 | 12 | 284 | 3.2 | 4.8 | 0.00 | 0.00 | 0.00 | 79 | 1013.8 |
| 20260507060048 | 12 | 281 | 3.2 | 3.2 | 0.00 | 0.00 | 0.00 | 79 | 1013.7 |
| 20260507055548 | 12 | 284 | 3.2 | 4.8 | 0.00 | 0.00 | 0.00 | 79 | 1013.8 |
| 20260507055045 | 12 | 320 | 1.6 | 3.2 | 0.00 | 0.00 | 0.00 | 79 | 1013.6 |
| 20260507054541 | 12 | 301 | 1.6 | 3.2 | 0.00 | 0.00 | 0.00 | 79 | 1013.4 |
| 20260507054038 | 12 | 289 | 1.6 | 1.6 | 0.00 | 0.00 | 0.00 | 79 | 1013.3 |
| 20260507053536 | 12 | 299 | 3.2 | 6.4 | 0.00 | 0.00 | 0.00 | 78 | 1013.3 |
| 20260507053034 | 12 | 276 | 4.8 | 4.8 | 0.00 | 0.00 | 0.00 | 78 | 1013.2 |
| 20260507052531 | 12 | 319 | 3.2 | 6.4 | 0.00 | 0.00 | 0.00 | 79 | 1013.0 |
| 20260507052028 | 12 | 334 | 3.2 | 4.8 | 0.00 | 0.00 | 0.00 | 79 | 1013.1 |
| 20260507051526 | 12 | 336 | 3.2 | 3.2 | 0.00 | 0.00 | 0.00 | 79 | 1013.0 |
| 20260507051023 | 12 | 342 | 3.2 | 4.8 | 0.00 | 0.00 | 0.00 | 79 | 1013.1 |
| 20260507050519 | 12 | 346 | 1.6 | 1.6 | 0.00 | 0.00 | 0.00 | 81 | 1013.4 |
| 20260507050016 | 12 | 328 | 1.6 | 1.6 | 0.00 | 0.00 | 0.00 | 81 | 1013.2 |
| 20260507045512 | 12 | 333 | 3.2 | 6.4 | 0.00 | 0.00 | 0.00 | 82 | 1013.1 |
| 20260507045010 | 12 | 315 | 1.6 | 1.6 | 0.00 | 0.00 | 0.00 | 81 | 1012.9 |
| 20260507044506 | 12 | 323 | 0.0 | 1.6 | 0.00 | 0.00 | 0.00 | 80 | 1013.1 |
| 20260507044003 | 12 | 319 | 1.6 | 14.5 | 0.00 | 0.00 | 0.00 | 80 | 1013.1 |
| 20260507043459 | 12 | 290 | 3.2 | 9.7 | 0.00 | 0.00 | 0.00 | 80 | 1013.1 |
| 20260507042955 | 12 | 275 | 4.8 | 9.7 | 0.00 | 0.00 | 0.00 | 79 | 1013.0 |
| 20260507042452 | 12 | 331 | 4.8 | 12.9 | 0.00 | 0.00 | 0.00 | 81 | 1012.5 |
| 20260507041948 | 12 | 304 | 1.6 | 4.8 | 0.00 | 0.00 | 0.00 | 81 | 1012.8 |
| 20260507041445 | 12 | 323 | 3.2 | 4.8 | 0.00 | 0.00 | 0.00 | 82 | 1012.8 |
| 20260507040942 | 13 | 279 | 3.2 | 4.8 | 0.00 | 0.00 | 0.00 | 82 | 1013.0 |
| 20260507040437 | 13 | 286 | 6.4 | 6.4 | 0.00 | 0.00 | 0.00 | 81 | 1013.0 |
| 20260507035934 | 13 | 327 | 3.2 | 4.8 | 0.00 | 0.30 | 0.30 | 82 | 1013.5 |
| 20260507035430 | 13 | 285 | 3.2 | 6.4 | 0.00 | 0.30 | 0.30 | 83 | 1013.4 |
| 20260507034927 | 13 | 287 | 6.4 | 11.3 | 0.00 | 0.30 | 0.30 | 82 | 1012.9 |
| 20260507034424 | 13 | 313 | 4.8 | 6.4 | 0.00 | 0.30 | 0.30 | 84 | 1013.0 |
| 20260507033922 | 13 | 357 | 3.2 | 6.4 | 0.00 | 0.30 | 0.30 | 84 | 1012.8 |
| 20260507033420 | 13 | 332 | 4.8 | 6.4 | 0.00 | 0.30 | 0.30 | 84 | 1013.2 |
| 20260507032916 | 13 | 327 | 3.2 | 6.4 | 0.00 | 0.30 | 0.30 | 85 | 1013.0 |
| 20260507032414 | 13 | 290 | 4.8 | 4.8 | 0.00 | 0.30 | 0.30 | 85 | 1012.9 |
| 20260507031909 | 13 | 322 | 4.8 | 11.3 | 0.00 | 0.30 | 0.30 | 85 | 1013.1 |
| 20260507031406 | 13 | 340 | 6.4 | 9.7 | 0.00 | 0.30 | 0.30 | 85 | 1013.3 |
| 20260507030903 | 13 | 350 | 4.8 | 6.4 | 0.00 | 0.30 | 0.30 | 84 | 1012.9 |
| 20260507030400 | 13 | 318 | 1.6 | 9.7 | 0.00 | 0.30 | 0.30 | 83 | 1012.8 |
| 20260507025857 | 14 | 293 | 6.4 | 11.3 | 0.00 | 0.30 | 0.30 | 82 | 1013.0 |
| 20260507025354 | 14 | 321 | 1.6 | 6.4 | 0.00 | 0.30 | 0.30 | 83 | 1013.0 |
| 20260507024852 | 14 | 291 | 4.8 | 9.7 | 0.00 | 0.30 | 0.30 | 82 | 1012.5 |
| 20260507024349 | 14 | 335 | 4.8 | 11.3 | 0.00 | 0.30 | 0.30 | 82 | 1012.8 |
| 20260507023845 | 14 | 291 | 4.8 | 9.7 | 0.00 | 0.30 | 0.30 | 80 | 1012.7 |
| 20260507023342 | 14 | 291 | 4.8 | 9.7 | 0.00 | 0.30 | 0.30 | 80 | 1012.7 |
| 20260507022839 | 14 | 283 | 6.4 | 14.5 | 0.00 | 0.30 | 0.30 | 81 | 1012.6 |
| 20260507022335 | 14 | 278 | 8.0 | 14.5 | 0.00 | 0.30 | 0.30 | 80 | 1012.7 |
| 20260507021831 | 14 | 268 | 6.4 | 9.7 | 0.00 | 0.30 | 0.30 | 80 | 1012.6 |
| 20260507021327 | 15 | 330 | 6.4 | 11.3 | 0.00 | 0.30 | 0.30 | 80 | 1012.3 |
| 20260507020825 | 15 | 23 | 3.2 | 6.4 | 0.00 | 0.30 | 0.30 | 81 | 1012.4 |
| 20260507020321 | 15 | 321 | 1.6 | 3.2 | 0.00 | 0.30 | 0.30 | 82 | 1012.5 |
| 20260507015819 | 15 | 294 | 0.0 | 1.6 | 0.00 | 0.30 | 0.30 | 82 | 1012.3 |
| 20260507015316 | 15 | 356 | 3.2 | 4.8 | 0.00 | 0.30 | 0.30 | 81 | 1012.1 |
| 20260507014813 | 15 | 280 | 4.8 | 11.3 | 0.00 | 0.30 | 0.30 | 80 | 1012.2 |
| 20260507014310 | 15 | 336 | 1.6 | 3.2 | 0.00 | 0.30 | 0.30 | 80 | 1012.2 |
| 20260507013806 | 15 | 298 | 1.6 | 6.4 | 0.00 | 0.30 | 0.30 | 80 | 1012.2 |
| 20260507013303 | 15 | 336 | 6.4 | 9.7 | 0.00 | 0.30 | 0.30 | 80 | 1012.2 |
| 20260507012801 | 15 | 333 | 4.8 | 9.7 | 0.00 | 0.30 | 0.30 | 80 | 1011.9 |
| 20260507012256 | 15 | 316 | 6.4 | 9.7 | 0.00 | 0.30 | 0.30 | 79 | 1011.8 |
| 20260507011754 | 16 | 327 | 1.6 | 4.8 | 0.00 | 0.30 | 0.30 | 79 | 1011.9 |
| 20260507011250 | 16 | 281 | 11.3 | 14.5 | 0.00 | 0.30 | 0.30 | 77 | 1012.0 |
| 20260507010750 | 16 | 305 | 4.8 | 6.4 | 0.00 | 0.30 | 0.30 | 79 | 1011.6 |
| 20260507010246 | 16 | 328 | 1.6 | 1.6 | 0.00 | 0.30 | 0.30 | 81 | 1011.8 |
| 20260507005744 | 16 | 269 | 6.4 | 9.7 | 0.00 | 0.30 | 0.30 | 78 | 1012.1 |
| 20260507005240 | 16 | 283 | 9.7 | 11.3 | 0.00 | 0.30 | 0.30 | 78 | 1012.2 |
| 20260507004736 | 16 | 331 | 6.4 | 16.1 | 0.00 | 0.30 | 0.30 | 78 | 1012.1 |
| 20260507004235 | 16 | 264 | 8.0 | 11.3 | 0.00 | 0.30 | 0.30 | 80 | 1012.3 |
| 20260507003730 | 16 | 267 | 4.8 | 9.7 | 0.00 | 0.30 | 0.30 | 79 | 1012.0 |
| 20260507003226 | 16 | 303 | 3.2 | 4.8 | 0.00 | 0.30 | 0.30 | 80 | 1011.7 |
| 20260507002722 | 16 | 0 | 3.2 | 6.4 | 0.00 | 0.30 | 0.30 | 81 | 1011.9 |
| 20260507002218 | 16 | 289 | 8.0 | 9.7 | 0.00 | 0.30 | 0.30 | 80 | 1011.8 |
| 20260507001715 | 16 | 255 | 8.0 | 9.7 | 0.00 | 0.30 | 0.30 | 81 | 1011.9 |
| 20260507001212 | 17 | 276 | 4.8 | 12.9 | 0.00 | 0.30 | 0.30 | 81 | 1011.9 |
| 20260507000708 | 17 | 278 | 11.3 | 16.1 | 0.00 | 0.30 | 0.30 | 81 | 1011.8 |
| 20260507000205 | 17 | 279 | 4.8 | 12.9 | 0.00 | 0.30 | 0.30 | 82 | 1011.7 |
| 20260506235701 | 17 | 295 | 6.4 | 12.9 | 0.00 | 0.30 | 0.30 | 82 | 1011.6 |
| 20260506235157 | 17 | 283 | 6.4 | 12.9 | 0.00 | 0.30 | 0.30 | 82 | 1011.3 |
| 20260506234654 | 17 | 337 | 6.4 | 9.7 | 0.00 | 0.30 | 0.30 | 84 | 1011.0 |
| 20260506234151 | 17 | 323 | 6.4 | 6.4 | 0.00 | 0.30 | 0.30 | 84 | 1011.2 |
| 20260506233648 | 17 | 256 | 8.0 | 9.7 | 0.00 | 0.30 | 0.30 | 85 | 1011.1 |
| 20260506233145 | 17 | 273 | 6.4 | 12.9 | 0.00 | 0.30 | 0.30 | 84 | 1010.8 |
| 20260506232641 | 17 | 306 | 1.6 | 4.8 | 0.00 | 0.30 | 0.30 | 84 | 1010.8 |
| 20260506232137 | 17 | 266 | 3.2 | 6.4 | 0.00 | 0.30 | 0.30 | 83 | 1010.4 |
| 20260506231634 | 18 | 266 | 3.2 | 6.4 | 0.00 | 0.30 | 0.30 | 83 | 1010.8 |
| 20260506231133 | 18 | 285 | 6.4 | 9.7 | 0.00 | 0.30 | 0.30 | 82 | 1010.3 |
| 20260506230629 | 18 | 283 | 9.7 | 12.9 | 0.00 | 0.30 | 0.30 | 81 | 1010.3 |
| 20260506230126 | 18 | 294 | 8.0 | 12.9 | 0.00 | 0.30 | 0.30 | 81 | 1010.2 |
| 20260506225622 | 18 | 273 | 4.8 | 11.3 | 0.00 | 0.30 | 0.30 | 81 | 1010.3 |
| 20260506225119 | 18 | 269 | 8.0 | 16.1 | 0.00 | 0.30 | 0.30 | 81 | 1010.3 |
| 20260506224616 | 18 | 357 | 11.3 | 17.7 | 0.00 | 0.30 | 0.30 | 80 | 1010.1 |
| 20260506224112 | 18 | 276 | 12.9 | 14.5 | 0.00 | 0.30 | 0.30 | 81 | 1010.3 |
| 20260506223608 | 18 | 306 | 8.0 | 9.7 | 0.00 | 0.30 | 0.30 | 82 | 1010.2 |
| 20260506223105 | 18 | 334 | 4.8 | 12.9 | 0.00 | 0.30 | 0.30 | 83 | 1010.4 |
| 20260506222602 | 18 | 302 | 3.2 | 4.8 | 0.00 | 0.30 | 0.30 | 84 | 1010.2 |
| 20260506222058 | 19 | 286 | 1.6 | 9.7 | 0.00 | 0.30 | 0.30 | 85 | 1010.0 |
| 20260506221556 | 19 | 263 | 4.8 | 6.4 | 0.00 | 0.30 | 0.30 | 84 | 1010.0 |
| 20260506221054 | 19 | 305 | 4.8 | 9.7 | 0.00 | 0.30 | 0.30 | 83 | 1010.2 |
| 20260506220549 | 19 | 332 | 4.8 | 12.9 | 0.00 | 0.30 | 0.30 | 84 | 1009.8 |
| 20260506220045 | 20 | 255 | 8.0 | 11.3 | 0.00 | 0.30 | 0.30 | 83 | 1010.0 |
| 20260506215542 | 20 | 285 | 9.7 | 11.3 | 0.00 | 0.30 | 0.30 | 81 | 1009.7 |
| 20260506215038 | 20 | 290 | 6.4 | 14.5 | 0.00 | 0.30 | 0.30 | 82 | 1009.5 |
| 20260506214535 | 20 | 285 | 6.4 | 9.7 | 0.00 | 0.30 | 0.30 | 84 | 1009.6 |
| 20260506214032 | 20 | 310 | 4.8 | 9.7 | 0.00 | 0.30 | 0.30 | 85 | 1009.7 |
| 20260506213530 | 20 | 277 | 3.2 | 4.8 | 0.00 | 0.30 | 0.30 | 84 | 1009.5 |
| 20260506213027 | 20 | 301 | 1.6 | 4.8 | 0.00 | 0.30 | 0.30 | 87 | 1009.7 |
| 20260506212524 | 20 | 331 | 1.6 | 1.6 | 0.00 | 0.30 | 0.30 | 87 | 1009.4 |
| 20260506212019 | 20 | 262 | 3.2 | 3.2 | 0.00 | 0.30 | 0.30 | 86 | 1009.3 |
| 20260506211515 | 20 | 79 | 0.0 | 0.0 | 0.00 | 0.30 | 0.30 | 85 | 1009.1 |
| 20260506211012 | 20 | 91 | 0.0 | 0.0 | 0.00 | 0.30 | 0.30 | 84 | 1009.2 |
| 20260506210508 | 20 | 124 | 0.0 | 1.6 | 0.00 | 0.30 | 0.30 | 83 | 1009.0 |
| 20260506210005 | 20 | 75 | 3.2 | 4.8 | 0.00 | 0.30 | 0.30 | 83 | 1008.9 |
| 20260506205502 | 21 | 97 | 0.0 | 3.2 | 0.00 | 0.30 | 0.30 | 83 | 1008.9 |
| 20260506204957 | 21 | 66 | 0.0 | 0.0 | 0.00 | 0.30 | 0.30 | 82 | 1008.7 |
| 20260506204456 | 21 | 356 | 0.0 | 1.6 | 0.00 | 0.30 | 0.30 | 84 | 1008.8 |
| 20260506203953 | 20 | 89 | 0.0 | 1.6 | 0.00 | 0.30 | 0.30 | 86 | 1008.7 |
| 20260506203450 | 20 | 75 | 1.6 | 1.6 | 0.00 | 0.30 | 0.30 | 86 | 1008.6 |
| 20260506202947 | 20 | 62 | 0.0 | 0.0 | 0.00 | 0.30 | 0.30 | 89 | 1008.6 |
| 20260506202444 | 19 | 16 | 0.0 | 0.0 | 0.00 | 0.30 | 0.30 | 90 | 1008.9 |
| 20260506201940 | 19 | 14 | 0.0 | 1.6 | 0.00 | 0.30 | 0.30 | 89 | 1008.8 |
| 20260506201438 | 19 | 9 | 0.0 | 0.0 | 0.00 | 0.30 | 0.30 | 87 | 1008.7 |
| 20260506200934 | 19 | 68 | 0.0 | 0.0 | 0.00 | 0.30 | 0.30 | 88 | 1008.8 |
| 20260506200431 | 19 | 66 | 0.0 | 1.6 | 0.00 | 0.30 | 0.30 | 88 | 1008.6 |
| 20260506195927 | 19 | 75 | 1.6 | 3.2 | 0.00 | 0.30 | 0.30 | 87 | 1008.7 |
| 20260506195424 | 19 | 89 | 1.6 | 3.2 | 0.00 | 0.30 | 0.30 | 87 | 1008.7 |
| 20260506194921 | 19 | 26 | 0.0 | 1.6 | 0.00 | 0.30 | 0.30 | 88 | 1008.8 |
| 20260506194418 | 18 | 10 | 0.0 | 1.6 | 0.00 | 0.30 | 0.30 | 89 | 1008.9 |
| 20260506193915 | 18 | 352 | 0.0 | 1.6 | 0.00 | 0.30 | 0.30 | 89 | 1008.8 |
| 20260506193412 | 18 | 343 | 1.6 | 3.2 | 0.00 | 0.30 | 0.30 | 89 | 1009.1 |
| 20260506192908 | 19 | 347 | 1.6 | 3.2 | 0.00 | 0.30 | 0.30 | 88 | 1009.1 |
| 20260506192405 | 19 | 349 | 1.6 | 1.6 | 0.00 | 0.30 | 0.30 | 88 | 1008.9 |
| 20260506191902 | 19 | 346 | 3.2 | 3.2 | 0.00 | 0.30 | 0.30 | 87 | 1009.0 |
| 20260506191358 | 19 | 337 | 3.2 | 4.8 | 0.00 | 0.30 | 0.30 | 87 | 1009.0 |
| 20260506190855 | 20 | 348 | 1.6 | 4.8 | 0.00 | 0.30 | 0.30 | 87 | 1009.0 |
| 20260506190352 | 20 | 4 | 3.2 | 4.8 | 0.00 | 0.30 | 0.30 | 87 | 1009.1 |
| 20260506185849 | 20 | 0 | 3.2 | 6.4 | 0.00 | 0.30 | 0.30 | 86 | 1009.0 |
| 20260506185346 | 19 | 336 | 4.8 | 9.7 | 0.00 | 0.30 | 0.30 | 88 | 1009.0 |
| 20260506184843 | 20 | 340 | 8.0 | 9.7 | 0.00 | 0.30 | 0.30 | 87 | 1009.1 |
| 20260506184340 | 20 | 28 | 1.6 | 4.8 | 0.00 | 0.30 | 0.30 | 87 | 1009.0 |
| 20260506183837 | 20 | 358 | 3.2 | 4.8 | 0.00 | 0.30 | 0.30 | 87 | 1008.9 |